createdAt,value
2023-01-06T00:00:41.876Z,78.43
2023-01-06T00:01:41.831Z,78.43
2023-01-06T00:02:41.831Z,78.43
2023-01-06T00:03:41.801Z,78.43
2023-01-06T00:04:41.873Z,78.43
2023-01-06T00:05:41.772Z,78.43
2023-01-06T00:06:41.770Z,78.43
2023-01-06T00:07:41.745Z,78.43
2023-01-06T00:08:41.738Z,78.43
2023-01-06T00:09:41.719Z,78.43
2023-01-06T00:10:41.703Z,78.43
2023-01-06T00:11:41.695Z,78.43
2023-01-06T00:12:41.681Z,78.43
2023-01-06T00:13:41.686Z,78.43
2023-01-06T00:14:41.777Z,78.43
2023-01-06T00:15:41.709Z,78.43
2023-01-06T00:16:41.626Z,78.43
2023-01-06T00:17:41.611Z,78.43
2023-01-06T00:18:41.597Z,78.43
2023-01-06T00:19:41.596Z,78.43
2023-01-06T00:20:41.574Z,78.43
2023-01-06T00:21:41.565Z,78.43
2023-01-06T00:22:41.560Z,78.43
2023-01-06T00:23:41.530Z,78.43
2023-01-06T00:24:41.519Z,78.43
2023-01-06T00:25:41.506Z,78.43
2023-01-06T00:26:41.491Z,78.43
2023-01-06T00:27:41.479Z,78.32
2023-01-06T00:28:41.463Z,78.43
2023-01-06T00:29:41.452Z,78.43
2023-01-06T00:30:41.569Z,78.32
2023-01-06T00:31:41.425Z,78.32
2023-01-06T00:32:41.411Z,78.43
2023-01-06T00:33:41.397Z,78.43
2023-01-06T00:34:41.383Z,78.43
2023-01-06T00:35:41.373Z,78.32
2023-01-06T00:36:41.357Z,78.32
2023-01-06T00:37:41.348Z,78.32
2023-01-06T00:38:41.335Z,78.32
2023-01-06T00:39:41.318Z,78.32
2023-01-06T00:40:41.305Z,78.32
2023-01-06T00:41:41.297Z,78.32
2023-01-06T00:42:41.278Z,78.32
2023-01-06T00:43:41.263Z,78.32
2023-01-06T00:44:41.247Z,78.32
2023-01-06T00:45:41.238Z,78.32
2023-01-06T00:46:41.338Z,78.32
2023-01-06T00:47:41.208Z,78.32
2023-01-06T00:48:46.872Z,78.32
2023-01-06T00:49:42.223Z,78.32
2023-01-06T00:50:41.173Z,78.32
2023-01-06T00:51:41.190Z,78.32
2023-01-06T00:52:41.145Z,78.32
2023-01-06T00:53:41.136Z,78.32
2023-01-06T00:54:41.117Z,78.32
2023-01-06T00:55:41.103Z,78.32
2023-01-06T00:56:41.095Z,78.32
2023-01-06T00:57:41.096Z,78.32
2023-01-06T00:58:41.069Z,78.32
2023-01-06T00:59:41.053Z,78.32
2023-01-06T01:00:41.043Z,78.32
2023-01-06T01:01:41.126Z,78.32
2023-01-06T01:02:41.322Z,78.32
2023-01-06T01:03:41.016Z,78.32
2023-01-06T01:04:40.993Z,78.32
2023-01-06T01:05:40.969Z,78.32
2023-01-06T01:06:40.961Z,78.22
2023-01-06T01:07:40.955Z,78.22
2023-01-06T01:08:40.930Z,78.22
2023-01-06T01:09:40.919Z,78.22
2023-01-06T01:10:40.908Z,78.22
2023-01-06T01:11:40.889Z,78.22
2023-01-06T01:12:40.877Z,78.22
2023-01-06T01:13:40.866Z,78.22
2023-01-06T01:14:40.853Z,78.22
2023-01-06T01:15:40.950Z,78.22
2023-01-06T01:16:40.826Z,78.22
2023-01-06T01:17:40.812Z,78.22
2023-01-06T01:18:40.911Z,78.22
2023-01-06T01:19:40.781Z,78.22
2023-01-06T01:20:40.776Z,78.22
2023-01-06T01:21:40.768Z,78.22
2023-01-06T01:22:40.742Z,78.22
2023-01-06T01:23:40.727Z,78.22
2023-01-06T01:24:40.715Z,78.22
2023-01-06T01:25:40.701Z,78.22
2023-01-06T01:26:40.710Z,78.22
2023-01-06T01:27:40.685Z,78.22
2023-01-06T01:28:40.664Z,78.22
2023-01-06T01:29:40.688Z,78.22
2023-01-06T01:30:40.643Z,78.22
2023-01-06T01:31:40.619Z,78.22
2023-01-06T01:32:40.618Z,78.22
2023-01-06T01:33:40.599Z,78.22
2023-01-06T01:34:40.698Z,78.22
2023-01-06T01:35:40.597Z,78.22
2023-01-06T01:36:40.557Z,78.22
2023-01-06T01:37:40.541Z,78.22
2023-01-06T01:38:40.544Z,78.22
2023-01-06T01:39:40.515Z,78.22
2023-01-06T01:40:40.503Z,78.22
2023-01-06T01:41:40.489Z,78.22
2023-01-06T01:42:40.502Z,78.22
2023-01-06T01:43:40.460Z,78.22
2023-01-06T01:44:40.458Z,78.22
2023-01-06T01:45:40.435Z,78.22
2023-01-06T01:46:40.476Z,78.22
2023-01-06T01:47:40.410Z,78.22
2023-01-06T01:48:40.399Z,78.22
2023-01-06T01:49:40.388Z,78.22
2023-01-06T01:50:40.497Z,78.22
2023-01-06T01:51:40.354Z,78.22
2023-01-06T01:52:40.351Z,78.22
2023-01-06T01:53:40.327Z,78.22
2023-01-06T01:54:40.315Z,78.22
2023-01-06T01:55:40.298Z,78.22
2023-01-06T01:56:40.289Z,78.22
2023-01-06T01:57:40.273Z,78.22
2023-01-06T01:58:40.266Z,78.22
2023-01-06T01:59:40.246Z,78.12
2023-01-06T02:00:40.256Z,78.12
2023-01-06T02:01:40.332Z,78.12
2023-01-06T02:02:40.338Z,78.12
2023-01-06T02:03:40.196Z,78.12
2023-01-06T02:04:40.185Z,78.12
2023-01-06T02:05:40.177Z,78.12
2023-01-06T02:06:40.273Z,78.12
2023-01-06T02:07:40.148Z,78.12
2023-01-06T02:08:40.134Z,78.12
2023-01-06T02:09:40.113Z,78.12
2023-01-06T02:10:40.105Z,78.12
2023-01-06T02:11:40.085Z,78.12
2023-01-06T02:12:40.075Z,78.12
2023-01-06T02:13:40.056Z,78.12
2023-01-06T02:14:40.048Z,78.12
2023-01-06T02:15:40.062Z,78.12
2023-01-06T02:16:40.025Z,78.12
2023-01-06T02:17:40.010Z,78.12
2023-01-06T02:18:40.002Z,78.12
2023-01-06T02:19:39.981Z,78.12
2023-01-06T02:20:39.965Z,78.12
2023-01-06T02:21:39.952Z,78.12
2023-01-06T02:22:40.059Z,78.12
2023-01-06T02:23:39.927Z,78.12
2023-01-06T02:24:39.913Z,78.12
2023-01-06T02:25:39.928Z,78.12
2023-01-06T02:26:39.896Z,78.12
2023-01-06T02:27:39.872Z,78.12
2023-01-06T02:28:39.867Z,78.12
2023-01-06T02:29:39.845Z,78.12
2023-01-06T02:30:39.838Z,78.12
2023-01-06T02:31:39.831Z,78.12
2023-01-06T02:32:39.804Z,78.12
2023-01-06T02:33:39.795Z,78.12
2023-01-06T02:34:39.834Z,78.12
2023-01-06T02:35:39.774Z,78.12
2023-01-06T02:36:39.751Z,78.12
2023-01-06T02:37:39.737Z,78.12
2023-01-06T02:38:39.850Z,78.12
2023-01-06T02:39:39.717Z,78.12
2023-01-06T02:40:39.720Z,78.02
2023-01-06T02:41:39.682Z,78.02
2023-01-06T02:42:39.677Z,78.12
2023-01-06T02:43:39.655Z,78.12
2023-01-06T02:44:39.644Z,78.02
2023-01-06T02:45:39.630Z,78.02
2023-01-06T02:46:39.673Z,78.02
2023-01-06T02:47:39.607Z,78.02
2023-01-06T02:48:39.590Z,78.02
2023-01-06T02:49:39.576Z,78.02
2023-01-06T02:50:39.577Z,78.02
2023-01-06T02:51:39.549Z,78.02
2023-01-06T02:52:39.539Z,78.02
2023-01-06T02:53:39.521Z,78.02
2023-01-06T02:54:39.636Z,78.02
2023-01-06T02:55:39.503Z,78.02
2023-01-06T02:56:39.482Z,78.02
2023-01-06T02:57:39.468Z,78.02
2023-01-06T02:58:39.457Z,78.02
2023-01-06T02:59:39.442Z,78.02
2023-01-06T03:00:39.430Z,78.02
2023-01-06T03:01:39.533Z,78.02
2023-01-06T03:02:39.403Z,78.02
2023-01-06T03:03:39.390Z,78.02
2023-01-06T03:04:39.386Z,78.02
2023-01-06T03:05:39.371Z,78.02
2023-01-06T03:06:39.348Z,78.02
2023-01-06T03:07:39.336Z,78.02
2023-01-06T03:08:39.324Z,78.02
2023-01-06T03:09:39.306Z,78.02
2023-01-06T03:10:39.415Z,78.02
2023-01-06T03:11:39.278Z,78.02
2023-01-06T03:12:39.282Z,78.02
2023-01-06T03:13:39.258Z,78.02
2023-01-06T03:14:39.258Z,78.02
2023-01-06T03:15:39.226Z,78.02
2023-01-06T03:16:39.212Z,78.02
2023-01-06T03:17:39.205Z,77.91
2023-01-06T03:18:39.190Z,78.02
2023-01-06T03:19:39.174Z,78.02
2023-01-06T03:20:39.160Z,78.02
2023-01-06T03:21:39.145Z,78.02
2023-01-06T03:22:39.137Z,78.02
2023-01-06T03:23:39.124Z,77.91
2023-01-06T03:24:39.105Z,78.02
2023-01-06T03:25:39.093Z,78.02
2023-01-06T03:26:39.219Z,78.02
2023-01-06T03:27:39.066Z,78.02
2023-01-06T03:28:39.073Z,77.91
2023-01-06T03:29:39.040Z,77.91
2023-01-06T03:30:39.026Z,77.91
2023-01-06T03:31:39.060Z,77.91
2023-01-06T03:32:38.999Z,77.91
2023-01-06T03:33:38.993Z,77.91
2023-01-06T03:34:38.972Z,77.91
2023-01-06T03:35:38.958Z,77.91
2023-01-06T03:36:38.945Z,77.91
2023-01-06T03:37:38.959Z,77.91
2023-01-06T03:38:38.919Z,77.91
2023-01-06T03:39:38.905Z,77.91
2023-01-06T03:40:38.891Z,77.91
2023-01-06T03:41:38.878Z,77.91
2023-01-06T03:42:38.995Z,77.91
2023-01-06T03:43:38.854Z,77.91
2023-01-06T03:44:38.842Z,77.91
2023-01-06T03:45:38.824Z,77.91
2023-01-06T03:46:38.881Z,77.91
2023-01-06T03:47:38.798Z,77.91
2023-01-06T03:48:38.785Z,77.91
2023-01-06T03:49:38.769Z,77.91
2023-01-06T03:50:38.758Z,77.91
2023-01-06T03:51:38.744Z,77.91
2023-01-06T03:52:38.736Z,77.91
2023-01-06T03:53:38.723Z,77.91
2023-01-06T03:54:38.707Z,77.91
2023-01-06T03:55:38.691Z,77.91
2023-01-06T03:56:38.679Z,77.91
2023-01-06T03:57:38.682Z,77.91
2023-01-06T03:58:38.777Z,77.91
2023-01-06T03:59:38.638Z,77.91
2023-01-06T04:00:38.669Z,77.91
2023-01-06T04:01:38.639Z,77.91
2023-01-06T04:02:38.597Z,77.91
2023-01-06T04:03:38.660Z,77.81
2023-01-06T04:04:38.572Z,77.91
2023-01-06T04:05:38.571Z,77.91
2023-01-06T04:06:38.543Z,77.91
2023-01-06T04:07:38.536Z,77.91
2023-01-06T04:08:38.518Z,77.91
2023-01-06T04:09:38.511Z,77.81
2023-01-06T04:10:38.502Z,77.91
2023-01-06T04:11:38.481Z,77.91
2023-01-06T04:12:38.504Z,77.91
2023-01-06T04:13:38.458Z,77.81
2023-01-06T04:14:38.559Z,77.81
2023-01-06T04:15:38.431Z,77.91
2023-01-06T04:16:38.411Z,77.81
2023-01-06T04:17:38.398Z,77.91
2023-01-06T04:18:38.385Z,77.81
2023-01-06T04:19:38.370Z,77.81
2023-01-06T04:20:38.358Z,77.81
2023-01-06T04:21:38.345Z,77.81
2023-01-06T04:22:38.331Z,77.81
2023-01-06T04:23:38.318Z,77.81
2023-01-06T04:24:38.307Z,77.81
2023-01-06T04:25:38.289Z,77.81
2023-01-06T04:26:38.277Z,77.81
2023-01-06T04:27:38.265Z,77.81
2023-01-06T04:28:38.255Z,77.81
2023-01-06T04:29:38.242Z,77.81
2023-01-06T04:30:38.344Z,77.81
2023-01-06T04:31:38.266Z,77.81
2023-01-06T04:32:38.202Z,77.81
2023-01-06T04:33:38.187Z,77.81
2023-01-06T04:34:38.178Z,77.81
2023-01-06T04:35:38.156Z,77.81
2023-01-06T04:36:38.161Z,77.81
2023-01-06T04:37:38.131Z,77.81
2023-01-06T04:38:38.117Z,77.81
2023-01-06T04:39:38.104Z,77.81
2023-01-06T04:40:38.091Z,77.81
2023-01-06T04:41:38.077Z,77.81
2023-01-06T04:42:38.067Z,77.81
2023-01-06T04:43:38.081Z,77.81
2023-01-06T04:44:38.044Z,77.81
2023-01-06T04:45:38.040Z,77.81
2023-01-06T04:46:38.129Z,77.81
2023-01-06T04:47:37.996Z,77.81
2023-01-06T04:48:37.987Z,77.81
2023-01-06T04:49:37.981Z,77.81
2023-01-06T04:50:37.960Z,77.81
2023-01-06T04:51:37.944Z,77.81
2023-01-06T04:52:37.935Z,77.81
2023-01-06T04:53:37.915Z,77.81
2023-01-06T04:54:37.911Z,77.81
2023-01-06T04:55:37.891Z,77.81
2023-01-06T04:56:37.882Z,77.81
2023-01-06T04:57:37.865Z,77.81
2023-01-06T04:58:37.851Z,77.81
2023-01-06T04:59:37.837Z,77.81
2023-01-06T05:00:37.841Z,77.81
2023-01-06T05:01:37.997Z,77.81
2023-01-06T05:02:37.917Z,77.81
2023-01-06T05:03:37.860Z,77.81
2023-01-06T05:04:47.328Z,77.81
2023-01-06T05:05:38.799Z,77.81
2023-01-06T05:06:37.811Z,77.81
2023-01-06T05:07:37.735Z,77.70
2023-01-06T05:08:37.717Z,77.70
2023-01-06T05:09:37.706Z,77.81
2023-01-06T05:10:37.692Z,77.81
2023-01-06T05:11:37.679Z,77.70
2023-01-06T05:12:37.728Z,77.81
2023-01-06T05:13:37.651Z,77.81
2023-01-06T05:14:37.639Z,77.81
2023-01-06T05:15:37.626Z,77.70
2023-01-06T05:16:37.646Z,77.70
2023-01-06T05:17:37.607Z,77.70
2023-01-06T05:18:37.739Z,77.70
2023-01-06T05:19:37.570Z,77.81
2023-01-06T05:20:37.557Z,77.81
2023-01-06T05:21:37.550Z,77.81
2023-01-06T05:22:37.530Z,77.81
2023-01-06T05:23:37.518Z,77.70
2023-01-06T05:24:37.507Z,77.70
2023-01-06T05:25:37.571Z,77.70
2023-01-06T05:26:37.475Z,77.70
2023-01-06T05:27:37.466Z,77.70
2023-01-06T05:28:37.451Z,77.70
2023-01-06T05:29:37.438Z,77.70
2023-01-06T05:30:37.424Z,77.70
2023-01-06T05:31:37.475Z,77.70
2023-01-06T05:32:37.396Z,77.70
2023-01-06T05:33:37.381Z,77.70
2023-01-06T05:34:37.492Z,77.70
2023-01-06T05:35:37.376Z,77.70
2023-01-06T05:36:37.349Z,77.70
2023-01-06T05:37:37.337Z,77.70
2023-01-06T05:38:37.314Z,77.70
2023-01-06T05:39:37.311Z,77.70
2023-01-06T05:40:37.287Z,77.70
2023-01-06T05:41:37.275Z,77.70
2023-01-06T05:42:37.265Z,77.70
2023-01-06T05:43:37.247Z,77.70
2023-01-06T05:44:37.253Z,77.70
2023-01-06T05:45:37.283Z,77.70
2023-01-06T05:46:37.217Z,77.61
2023-01-06T05:47:37.201Z,77.61
2023-01-06T05:48:37.221Z,77.61
2023-01-06T05:49:37.175Z,77.61
2023-01-06T05:50:37.270Z,77.70
2023-01-06T05:51:37.144Z,77.70
2023-01-06T05:52:37.127Z,77.70
2023-01-06T05:53:37.114Z,77.61
2023-01-06T05:54:37.105Z,77.70
2023-01-06T05:55:37.087Z,77.70
2023-01-06T05:56:37.072Z,77.70
2023-01-06T05:57:37.065Z,77.70
2023-01-06T05:58:37.061Z,77.61
2023-01-06T05:59:37.038Z,77.61
2023-01-06T06:00:37.023Z,77.70
2023-01-06T06:01:37.069Z,77.61
2023-01-06T06:02:36.994Z,77.61
2023-01-06T06:03:37.024Z,77.70
2023-01-06T06:04:36.967Z,77.70
2023-01-06T06:05:36.955Z,77.70
2023-01-06T06:06:37.069Z,77.61
2023-01-06T06:07:36.942Z,77.61
2023-01-06T06:08:36.913Z,77.61
2023-01-06T06:09:36.913Z,77.61
2023-01-06T06:10:36.890Z,77.61
2023-01-06T06:11:36.875Z,77.61
2023-01-06T06:12:36.876Z,77.61
2023-01-06T06:13:36.846Z,77.61
2023-01-06T06:14:36.841Z,77.61
2023-01-06T06:15:36.828Z,77.61
2023-01-06T06:16:36.897Z,77.61
2023-01-06T06:17:36.818Z,77.61
2023-01-06T06:18:36.780Z,77.61
2023-01-06T06:19:36.773Z,77.61
2023-01-06T06:20:36.754Z,77.61
2023-01-06T06:21:36.749Z,77.61
2023-01-06T06:22:36.842Z,77.61
2023-01-06T06:23:36.712Z,77.61
2023-01-06T06:24:36.699Z,77.61
2023-01-06T06:25:36.701Z,77.61
2023-01-06T06:26:36.676Z,77.61
2023-01-06T06:27:36.659Z,77.61
2023-01-06T06:28:36.643Z,77.61
2023-01-06T06:29:36.637Z,77.70
2023-01-06T06:30:36.618Z,77.61
2023-01-06T06:31:36.633Z,77.61
2023-01-06T06:32:36.591Z,77.61
2023-01-06T06:33:36.583Z,77.61
2023-01-06T06:34:36.564Z,77.61
2023-01-06T06:35:36.554Z,77.61
2023-01-06T06:36:36.564Z,77.61
2023-01-06T06:37:36.525Z,77.61
2023-01-06T06:38:36.646Z,77.61
2023-01-06T06:39:36.497Z,77.61
2023-01-06T06:40:36.493Z,77.61
2023-01-06T06:41:36.472Z,77.61
2023-01-06T06:42:36.456Z,77.61
2023-01-06T06:43:36.442Z,77.61
2023-01-06T06:44:36.430Z,77.61
2023-01-06T06:45:36.478Z,77.61
2023-01-06T06:46:36.406Z,77.61
2023-01-06T06:47:36.389Z,77.61
2023-01-06T06:48:36.375Z,77.61
2023-01-06T06:49:36.370Z,77.61
2023-01-06T06:50:36.350Z,77.61
2023-01-06T06:51:37.030Z,77.61
2023-01-06T06:52:36.324Z,77.61
2023-01-06T06:53:36.309Z,77.61
2023-01-06T06:54:36.411Z,77.61
2023-01-06T06:55:36.285Z,77.61
2023-01-06T06:56:36.269Z,77.61
2023-01-06T06:57:36.256Z,77.61
2023-01-06T06:58:36.243Z,77.61
2023-01-06T06:59:36.232Z,77.61
2023-01-06T07:00:36.213Z,77.61
2023-01-06T07:01:36.351Z,77.61
2023-01-06T07:02:36.191Z,77.61
2023-01-06T07:03:36.177Z,77.61
2023-01-06T07:04:36.293Z,77.61
2023-01-06T07:05:36.158Z,77.61
2023-01-06T07:06:36.131Z,77.61
2023-01-06T07:07:36.125Z,77.61
2023-01-06T07:08:36.105Z,77.61
2023-01-06T07:09:36.103Z,77.61
2023-01-06T07:10:36.198Z,77.50
2023-01-06T07:11:36.069Z,77.50
2023-01-06T07:12:36.053Z,77.50
2023-01-06T07:13:36.041Z,77.61
2023-01-06T07:14:36.026Z,77.61
2023-01-06T07:15:36.085Z,77.61
2023-01-06T07:16:35.999Z,77.61
2023-01-06T07:17:35.988Z,77.61
2023-01-06T07:18:35.999Z,77.61
2023-01-06T07:19:35.966Z,77.61
2023-01-06T07:20:35.951Z,77.61
2023-01-06T07:21:35.941Z,77.61
2023-01-06T07:22:35.920Z,77.61
2023-01-06T07:23:35.915Z,77.61
2023-01-06T07:24:35.913Z,77.61
2023-01-06T07:25:35.879Z,77.61
2023-01-06T07:26:36.014Z,77.61
2023-01-06T07:27:35.851Z,77.61
2023-01-06T07:28:35.837Z,77.50
2023-01-06T07:29:35.832Z,77.61
2023-01-06T07:30:35.810Z,77.61
2023-01-06T07:31:35.830Z,77.61
2023-01-06T07:32:35.783Z,77.61
2023-01-06T07:33:35.772Z,77.61
2023-01-06T07:34:35.761Z,77.61
2023-01-06T07:35:35.747Z,77.50
2023-01-06T07:36:35.730Z,77.50
2023-01-06T07:37:35.719Z,77.61
2023-01-06T07:38:35.703Z,77.50
2023-01-06T07:39:35.694Z,77.50
2023-01-06T07:40:35.674Z,77.50
2023-01-06T07:41:35.675Z,77.50
2023-01-06T07:42:35.772Z,77.50
2023-01-06T07:43:35.637Z,77.50
2023-01-06T07:44:35.624Z,77.50
2023-01-06T07:45:35.610Z,77.50
2023-01-06T07:46:35.597Z,77.50
2023-01-06T07:47:35.582Z,77.50
2023-01-06T07:48:35.576Z,77.50
2023-01-06T07:49:35.581Z,77.50
2023-01-06T07:50:35.596Z,77.50
2023-01-06T07:51:35.567Z,77.50
2023-01-06T07:52:35.517Z,77.50
2023-01-06T07:53:35.504Z,77.50
2023-01-06T07:54:35.513Z,77.50
2023-01-06T07:55:35.482Z,77.50
2023-01-06T07:56:35.463Z,77.50
2023-01-06T07:57:35.455Z,77.50
2023-01-06T07:58:35.562Z,77.50
2023-01-06T07:59:35.423Z,77.50
2023-01-06T08:00:35.419Z,77.50
2023-01-06T08:01:35.596Z,77.50
2023-01-06T08:02:35.455Z,77.50
2023-01-06T08:03:35.378Z,77.50
2023-01-06T08:04:35.364Z,77.50
2023-01-06T08:05:35.344Z,77.40
2023-01-06T08:06:35.334Z,77.40
2023-01-06T08:07:35.316Z,77.40
2023-01-06T08:08:35.301Z,77.50
2023-01-06T08:09:35.297Z,77.50
2023-01-06T08:10:35.281Z,77.50
2023-01-06T08:11:35.268Z,77.50
2023-01-06T08:12:35.257Z,77.50
2023-01-06T08:13:35.250Z,77.50
2023-01-06T08:14:35.351Z,77.50
2023-01-06T08:15:35.258Z,77.50
2023-01-06T08:16:35.214Z,77.50
2023-01-06T08:17:35.192Z,77.40
2023-01-06T08:18:35.167Z,77.40
2023-01-06T08:19:35.164Z,77.50
2023-01-06T08:20:35.151Z,77.40
2023-01-06T08:21:35.130Z,77.50
2023-01-06T08:22:35.120Z,77.40
2023-01-06T08:23:35.104Z,77.40
2023-01-06T08:24:35.091Z,77.40
2023-01-06T08:25:35.076Z,77.40
2023-01-06T08:26:35.067Z,77.40
2023-01-06T08:27:35.061Z,77.40
2023-01-06T08:28:35.032Z,77.40
2023-01-06T08:29:35.026Z,77.40
2023-01-06T08:30:35.129Z,77.40
2023-01-06T08:31:35.026Z,77.40
2023-01-06T08:32:34.983Z,77.36
2023-01-06T08:33:34.976Z,77.40
2023-01-06T08:34:34.952Z,77.40
2023-01-06T08:35:34.951Z,77.36
2023-01-06T08:36:34.926Z,77.40
2023-01-06T08:37:34.915Z,77.40
2023-01-06T08:38:34.900Z,77.36
2023-01-06T08:39:34.886Z,77.40
2023-01-06T08:40:34.890Z,77.40
2023-01-06T08:41:34.861Z,77.36
2023-01-06T08:42:34.845Z,77.36
2023-01-06T08:43:34.835Z,77.40
2023-01-06T08:44:34.818Z,77.36
2023-01-06T08:45:34.805Z,77.40
2023-01-06T08:46:34.996Z,77.36
2023-01-06T08:47:34.789Z,77.36
2023-01-06T08:48:34.765Z,77.36
2023-01-06T08:49:34.753Z,77.36
2023-01-06T08:50:34.738Z,77.36
2023-01-06T08:51:34.738Z,77.36
2023-01-06T08:52:34.713Z,77.36
2023-01-06T08:53:34.757Z,77.36
2023-01-06T08:54:34.684Z,77.36
2023-01-06T08:55:34.685Z,77.36
2023-01-06T08:56:34.677Z,77.36
2023-01-06T08:57:34.646Z,77.36
2023-01-06T08:58:34.631Z,77.36
2023-01-06T08:59:34.620Z,77.36
2023-01-06T09:00:34.607Z,77.26
2023-01-06T09:01:34.766Z,77.36
2023-01-06T09:02:34.706Z,77.36
2023-01-06T09:03:34.562Z,77.36
2023-01-06T09:04:34.614Z,77.36
2023-01-06T09:05:34.539Z,77.36
2023-01-06T09:06:34.525Z,77.36
2023-01-06T09:07:34.508Z,77.36
2023-01-06T09:08:34.496Z,77.36
2023-01-06T09:09:34.496Z,77.36
2023-01-06T09:10:34.468Z,77.36
2023-01-06T09:11:34.456Z,77.36
2023-01-06T09:12:34.442Z,77.36
2023-01-06T09:13:34.431Z,77.36
2023-01-06T09:14:34.416Z,77.36
2023-01-06T09:15:34.409Z,77.36
2023-01-06T09:16:34.389Z,77.36
2023-01-06T09:17:34.377Z,77.36
2023-01-06T09:18:34.485Z,77.36
2023-01-06T09:19:34.358Z,77.47
2023-01-06T09:20:34.336Z,77.47
2023-01-06T09:21:34.323Z,77.47
2023-01-06T09:22:34.324Z,77.47
2023-01-06T09:23:34.296Z,77.47
2023-01-06T09:24:34.310Z,77.47
2023-01-06T09:25:34.274Z,77.47
2023-01-06T09:26:34.282Z,77.47
2023-01-06T09:27:34.242Z,77.36
2023-01-06T09:28:34.229Z,77.36
2023-01-06T09:29:34.213Z,77.36
2023-01-06T09:30:34.204Z,77.36
2023-01-06T09:31:34.272Z,77.47
2023-01-06T09:32:34.180Z,77.47
2023-01-06T09:33:34.160Z,77.57
2023-01-06T09:34:34.269Z,77.57
2023-01-06T09:35:34.135Z,77.47
2023-01-06T09:36:34.125Z,77.57
2023-01-06T09:37:34.106Z,77.57
2023-01-06T09:38:34.097Z,77.57
2023-01-06T09:39:34.087Z,77.57
2023-01-06T09:40:34.070Z,77.67
2023-01-06T09:41:34.063Z,77.67
2023-01-06T09:42:34.044Z,77.67
2023-01-06T09:43:34.031Z,77.67
2023-01-06T09:44:34.014Z,77.67
2023-01-06T09:45:34.002Z,77.67
2023-01-06T09:46:34.027Z,77.67
2023-01-06T09:47:33.973Z,77.67
2023-01-06T09:48:33.961Z,77.77
2023-01-06T09:49:33.951Z,77.67
2023-01-06T09:50:34.096Z,77.67
2023-01-06T09:51:33.920Z,77.67
2023-01-06T09:52:33.907Z,77.77
2023-01-06T09:53:33.905Z,77.77
2023-01-06T09:54:33.878Z,77.77
2023-01-06T09:55:33.869Z,77.77
2023-01-06T09:56:33.862Z,77.77
2023-01-06T09:57:33.869Z,77.67
2023-01-06T09:58:33.828Z,77.77
2023-01-06T09:59:33.811Z,77.67
2023-01-06T10:00:33.807Z,77.77
2023-01-06T10:01:33.933Z,77.77
2023-01-06T10:02:33.831Z,77.77
2023-01-06T10:03:33.810Z,77.88
2023-01-06T10:04:33.747Z,77.77
2023-01-06T10:05:33.732Z,77.77
2023-01-06T10:06:33.853Z,77.88
2023-01-06T10:07:33.705Z,77.88
2023-01-06T10:08:33.693Z,77.77
2023-01-06T10:09:33.679Z,77.77
2023-01-06T10:10:33.664Z,77.77
2023-01-06T10:11:33.675Z,77.77
2023-01-06T10:12:33.637Z,77.88
2023-01-06T10:13:33.632Z,77.88
2023-01-06T10:14:33.620Z,77.88
2023-01-06T10:15:33.597Z,77.88
2023-01-06T10:16:33.639Z,78.08
2023-01-06T10:17:33.578Z,78.08
2023-01-06T10:18:33.560Z,78.19
2023-01-06T10:19:33.541Z,78.19
2023-01-06T10:20:33.531Z,78.19
2023-01-06T10:21:33.531Z,78.19
2023-01-06T10:22:33.625Z,78.28
2023-01-06T10:23:33.488Z,78.19
2023-01-06T10:24:33.488Z,78.19
2023-01-06T10:25:33.456Z,78.08
2023-01-06T10:26:33.449Z,78.08
2023-01-06T10:27:33.444Z,78.08
2023-01-06T10:28:33.439Z,78.28
2023-01-06T10:29:33.426Z,78.28
2023-01-06T10:30:33.983Z,78.28
2023-01-06T10:31:33.444Z,78.28
2023-01-06T10:32:33.373Z,78.28
2023-01-06T10:33:33.371Z,78.28
2023-01-06T10:34:33.363Z,78.28
2023-01-06T10:35:33.336Z,78.49
2023-01-06T10:36:33.320Z,78.49
2023-01-06T10:37:33.303Z,78.39
2023-01-06T10:38:33.414Z,78.39
2023-01-06T10:39:33.278Z,78.28
2023-01-06T10:40:33.331Z,78.19
2023-01-06T10:41:33.254Z,78.19
2023-01-06T10:42:33.244Z,78.19
2023-01-06T10:43:33.219Z,78.19
2023-01-06T10:44:33.210Z,78.49
2023-01-06T10:45:33.200Z,78.49
2023-01-06T10:46:33.248Z,78.39
2023-01-06T10:47:33.173Z,78.28
2023-01-06T10:48:33.167Z,78.28
2023-01-06T10:49:33.142Z,78.39
2023-01-06T10:50:33.130Z,78.39
2023-01-06T10:51:33.111Z,78.39
2023-01-06T10:52:33.107Z,78.39
2023-01-06T10:53:33.094Z,78.28
2023-01-06T10:54:33.197Z,78.28
2023-01-06T10:55:33.060Z,78.28
2023-01-06T10:56:33.054Z,78.28
2023-01-06T10:57:33.032Z,78.19
2023-01-06T10:58:33.020Z,78.39
2023-01-06T10:59:33.021Z,78.49
2023-01-06T11:00:33.046Z,78.60
2023-01-06T11:01:34.830Z,78.80
2023-01-06T11:02:33.138Z,78.90
2023-01-06T11:03:34.451Z,78.90
2023-01-06T11:04:32.946Z,79.01
2023-01-06T11:05:32.930Z,78.90
2023-01-06T11:06:32.914Z,78.80
2023-01-06T11:07:32.975Z,78.60
2023-01-06T11:08:32.924Z,78.70
2023-01-06T11:09:32.885Z,78.70
2023-01-06T11:10:33.015Z,78.70
2023-01-06T11:11:32.849Z,78.80
2023-01-06T11:12:32.837Z,78.90
2023-01-06T11:13:34.403Z,78.90
2023-01-06T11:14:32.828Z,79.01
2023-01-06T11:15:32.793Z,79.01
2023-01-06T11:16:32.837Z,79.01
2023-01-06T11:17:32.768Z,78.90
2023-01-06T11:18:32.752Z,79.01
2023-01-06T11:19:32.759Z,79.01
2023-01-06T11:20:32.725Z,79.11
2023-01-06T11:21:32.715Z,79.01
2023-01-06T11:22:32.786Z,78.90
2023-01-06T11:23:32.684Z,78.90
2023-01-06T11:24:32.670Z,78.70
2023-01-06T11:25:32.686Z,78.60
2023-01-06T11:26:32.766Z,78.49
2023-01-06T11:27:32.653Z,78.49
2023-01-06T11:28:32.671Z,78.49
2023-01-06T11:29:32.609Z,78.49
2023-01-06T11:30:32.617Z,78.49
2023-01-06T11:31:32.644Z,78.49
2023-01-06T11:32:32.564Z,78.49
2023-01-06T11:33:32.581Z,78.49
2023-01-06T11:34:32.547Z,78.49
2023-01-06T11:35:32.530Z,78.39
2023-01-06T11:36:32.519Z,78.49
2023-01-06T11:37:32.510Z,78.49
2023-01-06T11:38:32.486Z,78.49
2023-01-06T11:39:32.475Z,78.49
2023-01-06T11:40:32.462Z,78.49
2023-01-06T11:41:32.447Z,78.49
2023-01-06T11:42:32.551Z,78.49
2023-01-06T11:43:32.421Z,78.49
2023-01-06T11:44:32.406Z,78.60
2023-01-06T11:45:32.468Z,78.60
2023-01-06T11:46:32.383Z,78.70
2023-01-06T11:47:32.362Z,78.70
2023-01-06T11:48:32.393Z,78.70
2023-01-06T11:49:32.355Z,78.60
2023-01-06T11:50:32.324Z,78.60
2023-01-06T11:51:32.334Z,78.60
2023-01-06T11:52:32.316Z,78.49
2023-01-06T11:53:32.288Z,78.49
2023-01-06T11:54:32.295Z,78.49
2023-01-06T11:55:32.254Z,78.49
2023-01-06T11:56:32.253Z,78.39
2023-01-06T11:57:32.244Z,78.49
2023-01-06T11:58:32.339Z,78.39
2023-01-06T11:59:32.205Z,78.39
2023-01-06T12:00:32.247Z,78.39
2023-01-06T12:01:32.263Z,78.39
2023-01-06T12:02:32.239Z,78.39
2023-01-06T12:03:32.196Z,78.39
2023-01-06T12:04:32.133Z,78.39
2023-01-06T12:05:32.121Z,78.39
2023-01-06T12:06:32.126Z,78.28
2023-01-06T12:07:32.097Z,78.28
2023-01-06T12:08:32.093Z,78.28
2023-01-06T12:09:32.078Z,78.28
2023-01-06T12:10:32.074Z,78.28
2023-01-06T12:11:32.042Z,78.28
2023-01-06T12:12:32.031Z,78.28
2023-01-06T12:13:33.507Z,78.19
2023-01-06T12:14:33.161Z,78.19
2023-01-06T12:15:32.002Z,78.19
2023-01-06T12:16:32.061Z,78.19
2023-01-06T12:17:32.171Z,78.19
2023-01-06T12:18:31.959Z,78.19
2023-01-06T12:19:31.937Z,78.15
2023-01-06T12:20:31.923Z,78.05
2023-01-06T12:21:31.916Z,78.08
2023-01-06T12:22:31.893Z,78.08
2023-01-06T12:23:31.905Z,78.19
2023-01-06T12:24:31.874Z,78.05
2023-01-06T12:25:31.869Z,78.08
2023-01-06T12:26:31.846Z,78.05
2023-01-06T12:27:31.824Z,78.05
2023-01-06T12:28:31.823Z,78.08
2023-01-06T12:29:31.795Z,78.05
2023-01-06T12:30:31.973Z,78.08
2023-01-06T12:31:31.772Z,78.08
2023-01-06T12:32:31.764Z,77.98
2023-01-06T12:33:31.743Z,77.94
2023-01-06T12:34:31.734Z,77.98
2023-01-06T12:35:31.717Z,77.94
2023-01-06T12:36:31.711Z,77.94
2023-01-06T12:37:31.702Z,77.94
2023-01-06T12:38:31.679Z,77.94
2023-01-06T12:39:31.722Z,77.94
2023-01-06T12:40:31.669Z,77.94
2023-01-06T12:41:31.649Z,77.98
2023-01-06T12:42:31.650Z,77.94
2023-01-06T12:43:31.625Z,77.94
2023-01-06T12:44:31.602Z,77.94
2023-01-06T12:45:31.627Z,77.94
2023-01-06T12:46:31.826Z,77.98
2023-01-06T12:47:31.556Z,77.94
2023-01-06T12:48:31.554Z,77.94
2023-01-06T12:49:31.537Z,78.05
2023-01-06T12:50:31.522Z,78.05
2023-01-06T12:51:31.516Z,77.94
2023-01-06T12:52:31.493Z,77.98